createdAt,value
2023-03-08T00:01:46.000Z,4.7
2023-03-08T00:05:19.000Z,5.1
2023-03-08T00:08:10.000Z,4.7
2023-03-08T00:11:43.000Z,4.6
2023-03-08T00:15:15.000Z,4.7
2023-03-08T00:18:48.000Z,4.5
2023-03-08T00:22:21.000Z,4.9
2023-03-08T00:25:53.000Z,4.8
2023-03-08T00:29:26.000Z,4.7
2023-03-08T00:32:59.000Z,4.5
2023-03-08T00:36:32.000Z,5.1
2023-03-08T00:40:04.000Z,5.3
2023-03-08T00:43:37.000Z,5.2
2023-03-08T00:46:28.000Z,5.6
2023-03-08T00:50:00.000Z,5.8
2023-03-08T00:53:33.000Z,5.2
2023-03-08T00:57:06.000Z,5.4
2023-03-08T01:00:38.000Z,4.9
2023-03-08T01:04:11.000Z,5.2
2023-03-08T01:07:44.000Z,5.3
2023-03-08T01:11:16.000Z,5
2023-03-08T01:14:49.000Z,5.2
2023-03-08T01:18:22.000Z,5.3
2023-03-08T01:21:54.000Z,5.5
2023-03-08T01:24:45.000Z,5.9
2023-03-08T01:28:18.000Z,6
2023-03-08T01:31:51.000Z,5.9
2023-03-08T01:35:23.000Z,5.7
2023-03-08T01:38:56.000Z,5.5
2023-03-08T01:42:29.000Z,5.5
2023-03-08T01:46:01.000Z,6.1
2023-03-08T01:49:34.000Z,5.5
2023-03-08T01:53:06.000Z,6.6
2023-03-08T01:56:39.000Z,7
2023-03-08T02:00:12.000Z,6.1
2023-03-08T02:03:03.000Z,6.8
2023-03-08T02:06:35.000Z,5.2
2023-03-08T02:10:08.000Z,6
2023-03-08T02:13:41.000Z,7.1
2023-03-08T02:17:14.000Z,7.6
2023-03-08T02:20:47.000Z,6.3
2023-03-08T02:24:19.000Z,9.6
2023-03-08T02:27:52.000Z,9.7
2023-03-08T02:31:25.000Z,9.5
2023-03-08T02:34:57.000Z,9.5
2023-03-08T02:38:30.000Z,7.1
2023-03-08T02:41:21.000Z,7.1
2023-03-08T02:44:54.000Z,7.5
2023-03-08T02:48:27.000Z,15.8
2023-03-08T02:51:59.000Z,16.3
2023-03-08T02:55:32.000Z,16
2023-03-08T02:59:04.000Z,10.9
2023-03-08T03:02:37.000Z,9.4
2023-03-08T03:06:10.000Z,8.7
2023-03-08T03:09:42.000Z,7.9
2023-03-08T03:13:15.000Z,7.8
2023-03-08T03:16:48.000Z,7.4
2023-03-08T03:19:39.000Z,7.2
2023-03-08T03:23:11.000Z,6.5
2023-03-08T03:26:44.000Z,4.5
2023-03-08T03:30:16.000Z,4.7
2023-03-08T03:33:48.000Z,3.8
2023-03-08T03:37:18.000Z,3.8
2023-03-08T03:40:46.000Z,4.1
2023-03-08T03:44:17.000Z,4.3
2023-03-08T03:47:45.000Z,4.7
2023-03-08T03:51:15.000Z,4.4
2023-03-08T03:54:44.000Z,4.4
2023-03-08T03:57:33.000Z,4.4
2023-03-08T04:01:04.000Z,4.6
2023-03-08T04:04:37.000Z,4.8
2023-03-08T04:08:10.000Z,4.1
2023-03-08T04:11:42.000Z,7.9
2023-03-08T04:15:13.000Z,7.1
2023-03-08T04:18:45.000Z,5.7
2023-03-08T04:22:18.000Z,5.1
2023-03-08T04:25:50.000Z,4.2
2023-03-08T04:29:23.000Z,7.8
2023-03-08T04:32:53.000Z,5.4
2023-03-08T04:35:44.000Z,5.1
2023-03-08T04:39:17.000Z,5.7
2023-03-08T04:42:49.000Z,5.6
2023-03-08T04:46:18.000Z,5.6
2023-03-08T04:49:51.000Z,5.8
2023-03-08T04:53:23.000Z,5
2023-03-08T04:56:56.000Z,5.4
2023-03-08T05:00:29.000Z,5.9
2023-03-08T05:04:01.000Z,5.2
2023-03-08T05:07:34.000Z,5
2023-03-08T05:11:07.000Z,4.7
2023-03-08T05:13:58.000Z,4.9
2023-03-08T05:17:30.000Z,6.1
2023-03-08T05:21:01.000Z,5.6
2023-03-08T05:24:43.000Z,6.1
2023-03-08T05:28:15.000Z,6.6
2023-03-08T05:31:46.000Z,6.1
2023-03-08T05:35:19.000Z,6.1
2023-03-08T05:38:47.000Z,5.9
2023-03-08T05:42:16.000Z,5.5
2023-03-08T05:45:44.000Z,5.5
2023-03-08T05:49:12.000Z,5.6
2023-03-08T05:52:02.000Z,4.8
2023-03-08T05:55:30.000Z,5.2
2023-03-08T05:58:58.000Z,6.8
2023-03-08T06:02:26.000Z,6.8
2023-03-08T06:05:55.000Z,5.3
2023-03-08T06:09:24.000Z,5.5
2023-03-08T06:12:52.000Z,5.6
2023-03-08T06:16:21.000Z,4.8
2023-03-08T06:19:50.000Z,5.4
2023-03-08T06:23:22.000Z,4.9
2023-03-08T06:26:52.000Z,4.6
2023-03-08T06:29:41.000Z,5.1
2023-03-08T06:33:10.000Z,5.2
2023-03-08T06:36:41.000Z,5.6
2023-03-08T06:40:13.000Z,5.9
2023-03-08T06:43:46.000Z,6.4
2023-03-08T06:47:18.000Z,8.3
2023-03-08T06:50:51.000Z,6.7
2023-03-08T06:54:24.000Z,7.9
2023-03-08T06:57:56.000Z,7.7
2023-03-08T07:01:29.000Z,11.3
2023-03-08T07:05:02.000Z,9.7
2023-03-08T07:07:53.000Z,9.1
2023-03-08T07:11:26.000Z,10.3
2023-03-08T07:14:59.000Z,12.3
2023-03-08T07:18:31.000Z,13.3
2023-03-08T07:22:04.000Z,9.7
2023-03-08T07:25:36.000Z,11.7
2023-03-08T07:29:09.000Z,11
2023-03-08T07:32:42.000Z,9.7
2023-03-08T07:36:14.000Z,10.2
2023-03-08T07:39:47.000Z,11.9
2023-03-08T07:43:20.000Z,10.7
2023-03-08T07:46:11.000Z,10.8
2023-03-08T07:49:44.000Z,11.2
2023-03-08T07:53:16.000Z,11.6
2023-03-08T07:56:49.000Z,11.6
2023-03-08T08:00:22.000Z,10.4
2023-03-08T08:03:54.000Z,10.1
2023-03-08T08:07:27.000Z,10.9
2023-03-08T08:11:00.000Z,9.4
2023-03-08T08:14:32.000Z,10.4
2023-03-08T08:18:05.000Z,10.8
2023-03-08T08:21:38.000Z,12.3
2023-03-08T08:24:29.000Z,11.7
2023-03-08T08:28:01.000Z,11.7
2023-03-08T08:31:34.000Z,10.8
2023-03-08T08:35:07.000Z,11.4
2023-03-08T08:38:39.000Z,11.1
2023-03-08T08:42:12.000Z,11
2023-03-08T08:45:45.000Z,9.9
2023-03-08T08:49:17.000Z,9.7
2023-03-08T08:52:50.000Z,9.2
2023-03-08T08:56:23.000Z,9
2023-03-08T08:59:56.000Z,9.7
2023-03-08T09:02:47.000Z,9.2
2023-03-08T09:06:20.000Z,9.4
2023-03-08T09:09:52.000Z,9.5
2023-03-08T09:13:25.000Z,8.8
2023-03-08T09:16:58.000Z,8.8
2023-03-08T09:20:30.000Z,11
2023-03-08T09:24:03.000Z,9.9
2023-03-08T09:27:36.000Z,14.2
2023-03-08T09:31:08.000Z,11.3
2023-03-08T09:34:41.000Z,12.6
2023-03-08T09:38:14.000Z,15.3
2023-03-08T09:41:05.000Z,13.6
2023-03-08T09:44:38.000Z,12.3
2023-03-08T09:48:10.000Z,13.3
2023-03-08T09:51:43.000Z,11.8
2023-03-08T09:55:16.000Z,11.4
2023-03-08T09:58:48.000Z,10.5
2023-03-08T10:02:21.000Z,10.9
2023-03-08T10:05:54.000Z,11.9
2023-03-08T10:09:26.000Z,10.4
2023-03-08T10:12:59.000Z,10.2
2023-03-08T10:16:32.000Z,9.9
2023-03-08T10:19:23.000Z,10.7
2023-03-08T10:22:56.000Z,9
2023-03-08T10:26:28.000Z,8.8
2023-03-08T10:30:01.000Z,8
2023-03-08T10:33:34.000Z,7.1
2023-03-08T10:37:06.000Z,7.1
2023-03-08T10:40:39.000Z,6.6
2023-03-08T10:44:12.000Z,6
2023-03-08T10:47:47.000Z,6.7
2023-03-08T10:51:20.000Z,6.2
2023-03-08T10:54:53.000Z,6.9
2023-03-08T10:57:44.000Z,6
2023-03-08T11:01:17.000Z,5.5
2023-03-08T11:04:49.000Z,6.8
2023-03-08T11:08:22.000Z,6.6
2023-03-08T11:11:55.000Z,5.7
2023-03-08T11:15:27.000Z,8.2
2023-03-08T11:19:00.000Z,7
2023-03-08T11:22:33.000Z,7.9
2023-03-08T11:26:05.000Z,17
2023-03-08T11:29:38.000Z,12.9
2023-03-08T11:33:11.000Z,8.2
2023-03-08T11:36:02.000Z,7.9
2023-03-08T11:39:38.000Z,8.1
2023-03-08T11:43:10.000Z,9.1
2023-03-08T11:46:43.000Z,7.7
2023-03-08T11:50:16.000Z,8.2
2023-03-08T11:53:48.000Z,8.2
2023-03-08T11:57:21.000Z,9
2023-03-08T12:00:54.000Z,8.8
2023-03-08T12:04:26.000Z,14.1
2023-03-08T12:08:00.000Z,18.1
2023-03-08T12:11:32.000Z,28.6
2023-03-08T12:14:24.000Z,32
2023-03-08T12:17:57.000Z,25.1
2023-03-08T12:21:29.000Z,8.5
2023-03-08T12:25:02.000Z,14.4
2023-03-08T12:28:35.000Z,14.1
2023-03-08T12:32:07.000Z,9.3
2023-03-08T12:35:40.000Z,9.2
2023-03-08T12:39:14.000Z,8.1
2023-03-08T12:42:46.000Z,7.9
2023-03-08T12:46:19.000Z,11.8
2023-03-08T12:49:52.000Z,7.9
2023-03-08T12:52:43.000Z,8.2
2023-03-08T12:56:16.000Z,7.7
2023-03-08T12:59:48.000Z,7.5
2023-03-08T13:03:21.000Z,7.1
2023-03-08T13:06:54.000Z,8.6
2023-03-08T13:10:27.000Z,7.1
2023-03-08T13:13:59.000Z,8
2023-03-08T13:17:32.000Z,7.6
2023-03-08T13:21:05.000Z,5.1
2023-03-08T13:24:37.000Z,5.7
2023-03-08T13:28:10.000Z,5.9
2023-03-08T13:31:01.000Z,4.6
2023-03-08T13:34:34.000Z,4.5
2023-03-08T13:38:07.000Z,3.8
2023-03-08T13:41:40.000Z,3.9
2023-03-08T13:45:12.000Z,3.7
2023-03-08T13:48:45.000Z,3.6
2023-03-08T13:52:18.000Z,3.6
2023-03-08T13:55:50.000Z,4
2023-03-08T13:59:23.000Z,5.3
2023-03-08T14:02:56.000Z,3.8
2023-03-08T14:06:29.000Z,3
2023-03-08T14:09:20.000Z,3.4
2023-03-08T14:12:53.000Z,5.4
2023-03-08T14:16:25.000Z,3.8
2023-03-08T14:19:58.000Z,3.7
2023-03-08T14:23:31.000Z,3.3
2023-03-08T14:27:04.000Z,3.7
2023-03-08T14:30:39.000Z,3.4
2023-03-08T14:34:13.000Z,2.9
2023-03-08T14:37:45.000Z,2.5
2023-03-08T14:41:18.000Z,2.8
2023-03-08T14:44:50.000Z,2.7
2023-03-08T14:47:42.000Z,4.1
2023-03-08T14:51:14.000Z,2.6
2023-03-08T14:54:47.000Z,2.9
2023-03-08T14:58:20.000Z,2.2
2023-03-08T15:01:53.000Z,2.3
2023-03-08T15:05:25.000Z,1.9
2023-03-08T15:08:58.000Z,2.1
2023-03-08T15:12:31.000Z,4.2
2023-03-08T15:16:03.000Z,2.7
2023-03-08T15:19:39.000Z,2.4
2023-03-08T15:23:12.000Z,2
2023-03-08T15:26:03.000Z,2
2023-03-08T15:29:36.000Z,1.9
2023-03-08T15:33:09.000Z,1.9
2023-03-08T15:36:41.000Z,1.5
2023-03-08T15:40:14.000Z,2.5
2023-03-08T15:43:47.000Z,4.3
2023-03-08T15:47:19.000Z,5.6
2023-03-08T15:50:52.000Z,4.7
2023-03-08T15:54:29.000Z,2.8
2023-03-08T15:58:02.000Z,3.3
2023-03-08T16:01:37.000Z,2.6
2023-03-08T16:04:28.000Z,2.4
2023-03-08T16:08:01.000Z,2.4
2023-03-08T16:11:33.000Z,2.5
2023-03-08T16:15:06.000Z,2.6
2023-03-08T16:18:44.000Z,2.7
2023-03-08T16:22:17.000Z,2.7
2023-03-08T16:25:52.000Z,2.7
2023-03-08T16:29:39.000Z,4.1
2023-03-08T16:33:12.000Z,6.3
2023-03-08T16:36:45.000Z,5.7
2023-03-08T16:40:17.000Z,5.7
2023-03-08T16:43:09.000Z,5.9
2023-03-08T16:46:41.000Z,5.1
2023-03-08T16:50:14.000Z,4.8
2023-03-08T16:53:47.000Z,4.5
2023-03-08T16:57:19.000Z,5
2023-03-08T17:00:52.000Z,8
2023-03-08T17:04:25.000Z,6.5
2023-03-08T17:07:58.000Z,7.2
2023-03-08T17:11:31.000Z,7.7
2023-03-08T17:15:03.000Z,6.5
2023-03-08T17:18:36.000Z,6.8
2023-03-08T17:21:27.000Z,6.2
2023-03-08T17:25:00.000Z,5.6
2023-03-08T17:28:32.000Z,11.3
2023-03-08T17:32:05.000Z,11.3
2023-03-08T17:35:38.000Z,11.3
2023-03-08T17:39:10.000Z,7.2
2023-03-08T17:42:43.000Z,8.1
2023-03-08T17:46:16.000Z,11.1
2023-03-08T17:49:49.000Z,8.9
2023-03-08T17:53:21.000Z,8.7
2023-03-08T17:56:54.000Z,9.2
2023-03-08T17:59:45.000Z,9.1
2023-03-08T18:03:17.000Z,9.8
2023-03-08T18:06:50.000Z,8.1
2023-03-08T18:10:23.000Z,8.9
2023-03-08T18:13:55.000Z,10.6
2023-03-08T18:17:28.000Z,10.3
2023-03-08T18:21:00.000Z,7.9
2023-03-08T18:24:39.000Z,11.7
2023-03-08T18:28:12.000Z,11.4
2023-03-08T18:31:44.000Z,8.5
2023-03-08T18:35:17.000Z,14.4
2023-03-08T18:38:08.000Z,13.3
2023-03-08T18:41:41.000Z,12.8
2023-03-08T18:45:14.000Z,10.3
2023-03-08T18:48:46.000Z,9.3
2023-03-08T18:52:19.000Z,11.4
2023-03-08T18:55:51.000Z,12.7
2023-03-08T18:59:24.000Z,13.9
2023-03-08T19:02:57.000Z,14.9
2023-03-08T19:06:29.000Z,14.6
2023-03-08T19:10:02.000Z,13.9
2023-03-08T19:13:34.000Z,14.7
2023-03-08T19:16:25.000Z,14.9
2023-03-08T19:19:58.000Z,13
2023-03-08T19:23:31.000Z,11.4
2023-03-08T19:27:03.000Z,11.6
2023-03-08T19:30:38.000Z,12
2023-03-08T19:34:11.000Z,7.9
2023-03-08T19:37:44.000Z,9.3
2023-03-08T19:41:16.000Z,10.1
2023-03-08T19:44:49.000Z,13.5
2023-03-08T19:48:22.000Z,13.7
2023-03-08T19:51:54.000Z,16.5
2023-03-08T19:54:46.000Z,13.2
2023-03-08T19:58:18.000Z,14.3
2023-03-08T20:01:51.000Z,15.7
2023-03-08T20:05:23.000Z,12
2023-03-08T20:08:56.000Z,12.7
2023-03-08T20:12:29.000Z,15.8
2023-03-08T20:16:01.000Z,14.1
2023-03-08T20:19:34.000Z,12.9
2023-03-08T20:23:07.000Z,13.5
2023-03-08T20:26:39.000Z,19.2
2023-03-08T20:30:12.000Z,21.1
2023-03-08T20:33:03.000Z,19.4
2023-03-08T20:36:36.000Z,18.4
2023-03-08T20:40:09.000Z,15.5
2023-03-08T20:43:41.000Z,14.3
2023-03-08T20:47:14.000Z,10.4
2023-03-08T20:50:46.000Z,10.1
2023-03-08T20:54:19.000Z,9
2023-03-08T20:57:51.000Z,8.6
2023-03-08T21:01:24.000Z,8.3
2023-03-08T21:04:57.000Z,7.6
2023-03-08T21:08:30.000Z,11.3
2023-03-08T21:11:21.000Z,9
2023-03-08T21:14:53.000Z,9.1
2023-03-08T21:18:29.000Z,12.7
2023-03-08T21:22:01.000Z,13.4
2023-03-08T21:25:34.000Z,22.5
2023-03-08T21:29:07.000Z,13.8
2023-03-08T21:32:39.000Z,11.2
2023-03-08T21:36:12.000Z,15
2023-03-08T21:39:45.000Z,12.2
2023-03-08T21:43:17.000Z,17
2023-03-08T21:46:50.000Z,17.5
2023-03-08T21:49:41.000Z,21.2
2023-03-08T21:53:14.000Z,19.7
2023-03-08T21:56:46.000Z,15.4
2023-03-08T22:00:19.000Z,22.6
2023-03-08T22:03:52.000Z,21.6
2023-03-08T22:07:24.000Z,18.9
2023-03-08T22:10:57.000Z,35.1
2023-03-08T22:14:30.000Z,35.6
2023-03-08T22:18:03.000Z,32.7
2023-03-08T22:21:36.000Z,19
2023-03-08T22:25:08.000Z,18.2
2023-03-08T22:27:59.000Z,23.7
2023-03-08T22:31:32.000Z,26.3
2023-03-08T22:35:05.000Z,21.4
2023-03-08T22:38:37.000Z,20.4
2023-03-08T22:42:10.000Z,24
2023-03-08T22:45:43.000Z,25.2
2023-03-08T22:49:15.000Z,31.1
2023-03-08T22:53:00.000Z,26.9
2023-03-08T22:56:32.000Z,25.4
2023-03-08T23:00:05.000Z,20.1
2023-03-08T23:03:38.000Z,24.7
2023-03-08T23:06:29.000Z,28
2023-03-08T23:10:01.000Z,24.4
2023-03-08T23:13:34.000Z,24.7
2023-03-08T23:17:06.000Z,22.8
2023-03-08T23:20:39.000Z,22.6
2023-03-08T23:24:12.000Z,19
2023-03-08T23:27:44.000Z,19.3
2023-03-08T23:31:17.000Z,16.6
2023-03-08T23:34:50.000Z,15
2023-03-08T23:38:23.000Z,15
2023-03-08T23:41:55.000Z,13.9
2023-03-08T23:44:47.000Z,15.2
2023-03-08T23:48:20.000Z,16.9
2023-03-08T23:51:52.000Z,16.8
2023-03-08T23:55:25.000Z,13.5
2023-03-08T23:58:58.000Z,14.6
